Time;durP1;ratioP1;P1;durP2;ratioP2;P2;SDS_P1;SDS_P2;PMS_P1;PMS_P2;Temp;Humidity;BMP_temperature;BMP_pressure;BME280_temperature;BME280_humidity;BME280_pressure;Samples;Min_cycle;Max_cycle;Signal;HPM_P1;HPM_P2
2022/11/15 00:02:20;;;;;;;152.63;22.77;;;3.70;99.90;;;;;;4390430;28;659701;-65
2022/11/15 00:05:07;;;;;;;133.75;20.70;;;3.70;99.90;;;;;;4398021;28;659792;-64
2022/11/15 00:07:55;;;;;;;143.00;20.83;;;3.70;99.90;;;;;;4389768;28;659956;-65
2022/11/15 00:10:42;;;;;;;158.87;23.00;;;3.60;99.90;;;;;;4400788;28;659678;-64
2022/11/15 00:13:31;;;;;;;177.27;20.63;;;3.60;99.90;;;;;;4396892;28;659469;-64
2022/11/15 00:16:18;;;;;;;119.60;20.23;;;3.50;99.90;;;;;;4374194;28;659902;-64
2022/11/15 00:19:05;;;;;;;169.33;20.90;;;3.50;99.90;;;;;;4387688;28;660994;-65
2022/11/15 00:21:52;;;;;;;142.30;27.75;;;3.50;99.90;;;;;;4400702;28;660589;-64
2022/11/15 00:24:39;;;;;;;108.23;19.00;;;3.40;99.90;;;;;;4396468;28;659721;-65
2022/11/15 00:27:27;;;;;;;121.63;22.33;;;3.40;99.90;;;;;;4374589;28;659742;-64
2022/11/15 00:30:15;;;;;;;102.13;19.57;;;3.30;99.90;;;;;;4395911;28;659835;-64
2022/11/15 00:33:03;;;;;;;93.13;17.83;;;3.20;99.90;;;;;;4372526;28;660899;-64
2022/11/15 00:35:50;;;;;;;57.73;17.00;;;3.20;99.90;;;;;;4378932;28;658800;-64
2022/11/15 00:38:38;;;;;;;57.13;17.47;;;3.10;99.90;;;;;;4397631;28;659950;-64
2022/11/15 00:41:25;;;;;;;43.17;16.40;;;3.10;99.90;;;;;;4378995;28;658533;-64
2022/11/15 00:44:12;;;;;;;38.63;16.10;;;3.00;99.90;;;;;;4396556;28;660382;-64
2022/11/15 00:47:01;;;;;;;42.67;17.73;;;2.90;99.90;;;;;;4395318;28;658751;-66
2022/11/15 00:49:48;;;;;;;33.70;17.47;;;2.80;99.90;;;;;;4396698;28;659048;-64
2022/11/15 00:52:36;;;;;;;49.83;21.23;;;2.80;99.90;;;;;;4377864;28;658733;-65
2022/11/15 00:55:23;;;;;;;45.07;19.20;;;2.80;99.90;;;;;;4400952;28;659526;-64
2022/11/15 00:58:10;;;;;;;50.87;18.63;;;2.70;99.90;;;;;;4389134;28;658897;-65
2022/11/15 01:00:57;;;;;;;38.63;17.60;;;2.60;99.90;;;;;;4590588;28;658959;-64
2022/11/15 01:03:45;;;;;;;45.10;18.57;;;2.60;99.90;;;;;;4676830;28;535274;-64
2022/11/15 01:06:33;;;;;;;89.30;19.57;;;2.50;99.90;;;;;;4375583;28;659729;-64
2022/11/15 01:09:20;;;;;;;100.27;20.57;;;2.50;99.90;;;;;;4390694;28;659375;-66
2022/11/15 01:12:07;;;;;;;44.23;17.90;;;2.40;99.90;;;;;;4401323;28;659640;-64
2022/11/15 01:14:54;;;;;;;40.47;16.40;;;2.30;99.90;;;;;;4398110;28;658735;-64
2022/11/15 01:17:41;;;;;;;39.77;16.57;;;2.30;99.90;;;;;;4379595;28;659247;-64
2022/11/15 01:20:30;;;;;;;42.83;17.07;;;2.30;99.90;;;;;;4397441;28;658629;-64
2022/11/15 01:23:17;;;;;;;43.03;16.20;;;2.20;99.90;;;;;;4375134;28;659758;-64
2022/11/15 01:26:05;;;;;;;52.03;15.70;;;2.30;99.90;;;;;;4397619;28;659384;-64
2022/11/15 01:28:52;;;;;;;52.50;15.33;;;2.30;99.90;;;;;;4379345;28;659861;-64
2022/11/15 01:31:39;;;;;;;32.90;14.33;;;2.30;99.90;;;;;;4397704;28;659338;-64
2022/11/15 01:34:26;;;;;;;67.13;15.20;;;2.30;99.90;;;;;;4376365;28;658419;-64
2022/11/15 01:37:15;;;;;;;99.70;15.37;;;2.30;99.90;;;;;;4397875;28;659456;-65
2022/11/15 01:40:03;;;;;;;118.57;15.03;;;2.20;99.90;;;;;;4375252;28;659867;-64
2022/11/15 01:42:50;;;;;;;165.77;17.73;;;2.20;99.90;;;;;;4389997;28;659647;-65
2022/11/15 01:45:37;;;;;;;358.40;21.00;;;2.10;99.90;;;;;;4416959;28;659733;-64
2022/11/15 01:48:25;;;;;;;186.93;18.97;;;2.10;99.90;;;;;;4412777;28;659435;-64
2022/11/15 01:51:13;;;;;;;201.07;20.80;;;2.10;99.90;;;;;;4389267;28;661723;-64
2022/11/15 01:54:03;;;;;;;202.10;22.67;;;2.10;99.90;;;;;;4393295;28;659485;-66
2022/11/15 01:56:53;;;;;;;296.30;26.10;;;2.00;99.90;;;;;;4405630;28;659719;-66
2022/11/15 01:59:41;;;;;;;166.57;27.53;;;2.00;99.90;;;;;;4388292;28;660028;-65
2022/11/15 02:02:28;;;;;;;177.10;33.95;;;2.00;99.90;;;;;;4395247;28;660342;-64
2022/11/15 02:05:15;;;;;;;280.10;41.83;;;2.00;99.90;;;;;;4376175;28;660345;-65
2022/11/15 02:08:02;;;;;;;244.47;45.13;;;1.90;99.90;;;;;;4394983;28;661231;-64
2022/11/15 02:10:51;;;;;;;127.37;44.40;;;1.90;99.90;;;;;;4391283;28;659713;-66
2022/11/15 02:13:38;;;;;;;138.37;47.77;;;1.80;99.90;;;;;;4394995;28;660341;-64
2022/11/15 02:16:28;;;;;;;117.30;40.97;;;1.80;99.90;;;;;;4376185;28;659384;-64
2022/11/15 02:19:23;;;;;;;98.13;37.13;;;1.70;99.90;;;;;;4375939;28;659577;-64
2022/11/15 02:22:15;;;;;;;82.27;32.87;;;1.50;99.90;;;;;;4349539;28;658700;-66
2022/11/15 02:25:08;;;;;;;61.87;21.33;;;1.50;99.90;;;;;;4373623;28;659633;-64
2022/11/15 02:28:08;;;;;;;99.33;25.07;;;1.30;99.90;;;;;;4359660;28;658731;-65
2022/11/15 02:30:58;;;;;;;64.83;23.70;;;1.20;99.90;;;;;;4355319;28;659124;-66
2022/11/15 02:33:51;;;;;;;54.93;23.83;;;1.10;99.90;;;;;;4385959;28;658475;-65
2022/11/15 02:36:41;;;;;;;64.87;24.57;;;1.10;99.90;;;;;;4373254;28;659345;-64
2022/11/15 02:39:30;;;;;;;62.23;25.43;;;1.20;99.90;;;;;;4373061;28;659185;-64
2022/11/15 02:45:27;;;;;;;62.07;26.10;;;1.20;99.90;;;;;;4370720;28;660380;-64
2022/11/15 02:48:16;;;;;;;92.13;26.70;;;1.20;99.90;;;;;;4372071;28;658807;-64
2022/11/15 02:51:03;;;;;;;196.20;25.10;;;1.30;99.90;;;;;;4371727;28;660151;-64
2022/11/15 02:53:50;;;;;;;231.37;27.43;;;1.30;99.90;;;;;;4374421;28;659791;-65
2022/11/15 02:56:37;;;;;;;280.58;28.98;;;1.40;99.90;;;;;;4397640;28;659902;-64
2022/11/15 02:59:37;;;;;;;171.83;24.60;;;1.40;99.90;;;;;;4393241;28;660324;-64
2022/11/15 03:02:32;;;;;;;91.10;23.33;;;1.30;99.90;;;;;;4370440;28;659607;-64
2022/11/15 03:05:25;;;;;;;41.47;20.30;;;1.20;99.90;;;;;;4368284;28;659267;-65
2022/11/15 03:08:16;;;;;;;36.70;18.97;;;1.20;99.90;;;;;;4371830;28;659982;-64
2022/11/15 03:11:06;;;;;;;44.03;21.43;;;1.20;99.90;;;;;;4371413;28;659307;-64
2022/11/15 03:13:56;;;;;;;44.87;21.87;;;1.10;99.90;;;;;;4371707;28;660128;-64
2022/11/15 03:16:46;;;;;;;48.00;23.60;;;1.10;99.90;;;;;;4371886;28;659955;-64
2022/11/15 03:19:34;;;;;;;46.57;22.60;;;1.10;99.90;;;;;;4372300;28;658831;-64
2022/11/15 03:22:25;;;;;;;51.80;22.90;;;1.10;99.90;;;;;;4375939;28;658599;-64
2022/11/15 03:25:14;;;;;;;42.00;20.50;;;1.10;99.90;;;;;;4371570;28;660260;-64
2022/11/15 03:28:02;;;;;;;40.70;19.57;;;1.10;99.90;;;;;;4375576;28;658628;-64
2022/11/15 03:30:49;;;;;;;41.00;19.65;;;1.00;99.90;;;;;;4394097;28;659486;-64
2022/11/15 03:33:36;;;;;;;39.83;20.50;;;0.90;99.90;;;;;;4373612;28;658472;-64
2022/11/15 03:36:23;;;;;;;47.03;22.93;;;0.90;99.90;;;;;;4394524;28;660044;-64
2022/11/15 03:39:12;;;;;;;50.27;23.27;;;0.90;99.90;;;;;;4375398;28;658638;-65
2022/11/15 03:42:05;;;;;;;45.27;19.97;;;1.00;99.90;;;;;;4394289;28;659002;-64
2022/11/15 03:44:53;;;;;;;47.67;17.80;;;1.00;99.90;;;;;;4350682;28;660064;-64
2022/11/15 03:47:41;;;;;;;65.20;15.53;;;1.10;99.90;;;;;;4378516;28;658818;-65
2022/11/15 03:50:28;;;;;;;67.30;20.77;;;1.10;99.90;;;;;;4397558;28;659554;-64
2022/11/15 03:53:16;;;;;;;60.00;18.70;;;1.20;99.90;;;;;;4378081;28;659306;-64
2022/11/15 03:56:05;;;;;;;47.80;15.83;;;1.20;99.90;;;;;;4400486;28;659164;-64
2022/11/15 03:58:52;;;;;;;63.87;15.07;;;1.20;99.90;;;;;;4376432;28;660168;-64
2022/11/15 04:01:39;;;;;;;50.17;16.47;;;1.10;99.90;;;;;;4399189;28;658989;-64
2022/11/15 04:04:26;;;;;;;44.07;17.63;;;1.20;99.90;;;;;;4376889;28;658599;-64
2022/11/15 04:07:13;;;;;;;42.87;19.30;;;1.20;99.90;;;;;;4398800;28;660027;-64
2022/11/15 04:10:03;;;;;;;46.63;22.40;;;1.10;99.90;;;;;;4380475;28;659139;-65
2022/11/15 04:12:51;;;;;;;55.40;25.27;;;1.10;99.90;;;;;;4389142;28;659905;-65
2022/11/15 04:15:38;;;;;;;57.03;27.10;;;1.00;99.90;;;;;;4399238;28;659459;-64
2022/11/15 04:18:26;;;;;;;46.03;24.67;;;1.00;99.90;;;;;;4380300;28;659414;-65
2022/11/15 04:24:17;;;;;;;49.10;23.73;;;1.00;99.90;;;;;;4353707;28;659940;-64
2022/11/15 04:27:04;;;;;;;46.15;22.65;;;0.90;99.90;;;;;;4398763;28;659361;-64
2022/11/15 04:29:53;;;;;;;51.27;23.47;;;1.00;99.90;;;;;;4376202;28;658388;-64
2022/11/15 04:32:40;;;;;;;42.00;21.00;;;0.90;99.90;;;;;;4390069;28;658899;-66
2022/11/15 04:35:27;;;;;;;48.50;22.57;;;0.90;99.90;;;;;;4402676;28;658524;-64
2022/11/15 04:38:14;;;;;;;41.37;21.73;;;0.90;99.90;;;;;;4398586;28;659376;-64
2022/11/15 04:41:01;;;;;;;40.27;19.60;;;0.90;99.90;;;;;;4376653;28;658942;-64
2022/11/15 04:43:48;;;;;;;39.17;19.07;;;0.80;99.90;;;;;;4398511;28;659241;-64
2022/11/15 04:46:37;;;;;;;37.30;20.10;;;0.80;99.90;;;;;;4379315;28;658543;-64
2022/11/15 04:49:24;;;;;;;39.07;18.90;;;0.80;99.90;;;;;;4398354;28;659490;-64
2022/11/15 04:52:11;;;;;;;38.20;19.80;;;0.70;99.90;;;;;;4379660;28;658722;-64
2022/11/15 04:54:58;;;;;;;38.40;20.50;;;0.70;99.90;;;;;;4398303;28;659981;-64
2022/11/15 04:57:45;;;;;;;44.67;20.10;;;0.70;99.90;;;;;;4384753;28;658429;-65
2022/11/15 05:00:33;;;;;;;36.90;18.20;;;0.70;99.90;;;;;;4513090;28;659067;-64
2022/11/15 05:06:26;;;;;;;43.85;21.27;;;0.60;99.90;;;;;;4368115;28;659198;-64
2022/11/15 05:09:14;;;;;;;37.43;19.10;;;0.60;99.90;;;;;;4413406;28;660407;-64
2022/11/15 05:12:01;;;;;;;32.77;16.63;;;0.70;99.90;;;;;;4394843;28;658821;-64
2022/11/15 05:14:48;;;;;;;36.50;17.23;;;0.70;99.90;;;;;;4416128;28;659070;-64
2022/11/15 05:17:35;;;;;;;39.00;19.73;;;0.70;99.90;;;;;;4399597;28;658703;-66
2022/11/15 05:20:24;;;;;;;37.00;17.40;;;0.70;99.90;;;;;;4413374;28;659568;-64
2022/11/15 05:23:11;;;;;;;35.10;18.53;;;0.70;99.90;;;;;;4394802;28;659170;-64
2022/11/15 05:25:59;;;;;;;33.20;17.87;;;0.70;99.90;;;;;;4416924;28;659273;-64
2022/11/15 05:28:47;;;;;;;41.63;19.27;;;0.70;99.90;;;;;;4390582;28;659455;-64
2022/11/15 05:31:34;;;;;;;44.73;21.77;;;0.70;99.90;;;;;;4413380;28;658736;-64
2022/11/15 05:34:22;;;;;;;62.50;27.20;;;0.70;99.90;;;;;;4394573;28;658642;-64
2022/11/15 05:37:10;;;;;;;49.70;21.93;;;0.70;99.90;;;;;;4413175;28;658544;-64
2022/11/15 05:39:58;;;;;;;45.60;21.40;;;0.70;99.90;;;;;;4390214;28;660059;-64
2022/11/15 05:42:45;;;;;;;47.63;21.63;;;0.80;99.90;;;;;;4406775;28;659203;-65
2022/11/15 05:45:32;;;;;;;37.33;18.87;;;0.80;99.90;;;;;;4413089;28;660588;-64
2022/11/15 05:48:19;;;;;;;37.97;19.57;;;0.90;99.90;;;;;;4413164;28;658638;-63
2022/11/15 05:51:07;;;;;;;36.63;18.13;;;0.90;99.90;;;;;;4394342;28;658742;-64
2022/11/15 05:53:55;;;;;;;36.40;17.43;;;0.80;99.90;;;;;;4412786;28;658702;-64
2022/11/15 05:56:42;;;;;;;35.13;18.43;;;0.90;99.90;;;;;;4389850;28;659928;-63
2022/11/15 05:59:30;;;;;;;39.13;19.37;;;0.90;99.90;;;;;;4388402;28;658586;-65
2022/11/15 06:02:18;;;;;;;35.43;17.03;;;1.00;99.90;;;;;;4396506;28;660214;-64
2022/11/15 06:05:05;;;;;;;33.03;17.07;;;1.10;99.90;;;;;;4389878;28;658883;-65
2022/11/15 06:07:52;;;;;;;40.13;17.27;;;1.10;99.90;;;;;;4396085;28;660213;-64
2022/11/15 06:10:41;;;;;;;33.10;16.53;;;1.10;99.90;;;;;;4393527;28;658615;-66
2022/11/15 06:13:28;;;;;;;35.33;17.50;;;1.20;99.90;;;;;;4396405;28;659058;-63
2022/11/15 06:16:16;;;;;;;40.20;18.57;;;1.30;99.90;;;;;;4377456;28;658745;-64
2022/11/15 06:19:03;;;;;;;33.00;16.87;;;1.30;99.90;;;;;;4396267;28;658870;-64
2022/11/15 06:21:50;;;;;;;40.40;16.83;;;1.40;99.90;;;;;;4388385;28;659006;-65
2022/11/15 06:24:37;;;;;;;41.47;20.45;;;1.60;99.90;;;;;;4399833;28;659176;-64
2022/11/15 06:27:26;;;;;;;38.17;17.90;;;1.60;99.90;;;;;;4395866;28;659153;-64
2022/11/15 06:30:13;;;;;;;37.03;16.93;;;1.70;99.90;;;;;;4368747;28;659540;-64
2022/11/15 06:33:01;;;;;;;48.77;21.00;;;1.80;99.90;;;;;;4377041;28;659296;-65
2022/11/15 06:35:48;;;;;;;44.87;20.33;;;1.80;99.90;;;;;;4395989;28;659310;-64
2022/11/15 06:38:35;;;;;;;45.93;20.33;;;1.90;99.90;;;;;;4376978;28;659082;-65
2022/11/15 06:41:23;;;;;;;40.23;18.37;;;2.00;99.90;;;;;;4394642;28;660673;-64
2022/11/15 06:44:11;;;;;;;53.80;26.27;;;1.90;99.90;;;;;;4389264;28;658728;-65
2022/11/15 06:46:59;;;;;;;65.77;32.10;;;2.00;99.90;;;;;;4394842;28;659306;-64
2022/11/15 06:49:46;;;;;;;75.57;38.67;;;2.20;99.90;;;;;;4376427;28;659122;-64
2022/11/15 06:52:33;;;;;;;58.90;30.70;;;2.40;99.90;;;;;;4397769;28;659203;-64
2022/11/15 06:55:20;;;;;;;72.63;35.28;;;2.60;99.90;;;;;;4376044;28;658481;-65
2022/11/15 06:58:07;;;;;;;72.80;37.50;;;2.70;99.90;;;;;;4399934;28;659521;-64
2022/11/15 07:00:59;;;;;;;65.30;32.50;;;2.80;99.90;;;;;;4565569;28;659170;-64
2022/11/15 07:03:46;;;;;;;78.70;37.43;;;3.00;99.90;;;;;;4656235;28;535189;-64
2022/11/15 07:06:33;;;;;;;69.63;36.27;;;3.10;99.90;;;;;;4396438;28;659936;-64
2022/11/15 07:09:20;;;;;;;77.53;39.03;;;3.30;99.90;;;;;;4377967;28;658711;-65
2022/11/15 07:12:07;;;;;;;81.40;38.70;;;3.50;99.90;;;;;;4400581;28;659752;-64
2022/11/15 07:14:55;;;;;;;81.50;42.90;;;3.60;99.90;;;;;;4396536;28;658890;-65
2022/11/15 07:17:43;;;;;;;90.87;41.47;;;3.80;99.90;;;;;;4400439;28;659254;-64
2022/11/15 07:20:31;;;;;;;82.20;41.50;;;3.90;99.90;;;;;;4380769;28;659178;-66
2022/11/15 07:23:18;;;;;;;82.97;39.23;;;4.10;99.90;;;;;;4400134;28;658935;-64
2022/11/15 07:26:05;;;;;;;74.53;35.03;;;4.10;99.90;;;;;;4391012;28;659352;-66
2022/11/15 07:28:52;;;;;;;80.30;39.03;;;4.30;99.90;;;;;;4399851;28;660672;-64
2022/11/15 07:31:40;;;;;;;83.07;41.00;;;4.50;99.90;;;;;;4398438;28;658855;-66
2022/11/15 07:34:28;;;;;;;91.55;45.55;;;4.70;99.90;;;;;;4403933;28;658442;-64
2022/11/15 07:37:17;;;;;;;96.70;47.80;;;4.90;99.90;;;;;;4380716;28;659114;-65
2022/11/15 07:40:06;;;;;;;83.27;42.17;;;5.10;99.90;;;;;;4399179;28;658851;-66
2022/11/15 07:42:53;;;;;;;78.77;37.43;;;5.40;99.90;;;;;;4411562;28;659984;-65
2022/11/15 07:45:44;;;;;;;78.53;41.33;;;5.80;99.90;;;;;;4397233;28;658704;-65
2022/11/15 07:48:31;;;;;;;70.45;38.65;;;6.30;99.90;;;;;;4393620;28;658777;-65
2022/11/15 07:51:19;;;;;;;50.27;29.43;;;6.60;99.90;;;;;;4417292;28;659607;-65
2022/11/15 07:54:06;;;;;;;55.33;30.80;;;7.00;99.90;;;;;;4396616;28;659163;-65
2022/11/15 07:56:53;;;;;;;48.70;27.83;;;7.40;99.90;;;;;;4416070;28;658339;-65
2022/11/15 07:59:41;;;;;;;44.67;25.73;;;7.70;99.90;;;;;;4379748;28;658823;-65
2022/11/15 08:02:28;;;;;;;44.73;25.77;;;8.10;99.90;;;;;;4398425;28;659574;-65
2022/11/15 08:05:15;;;;;;;39.27;22.93;;;8.90;99.90;;;;;;4391196;28;658523;-66
2022/11/15 08:08:04;;;;;;;36.47;21.97;;;9.40;99.90;;;;;;4398413;28;659806;-65
2022/11/15 08:10:51;;;;;;;42.97;25.60;;;9.40;99.90;;;;;;4379579;28;658738;-65
2022/11/15 08:13:38;;;;;;;46.73;28.07;;;10.10;99.90;;;;;;4398352;28;660276;-65
2022/11/15 08:16:25;;;;;;;34.57;20.93;;;10.60;99.90;;;;;;4378156;28;659585;-65
2022/11/15 08:19:12;;;;;;;29.77;18.37;;;10.90;99.90;;;;;;4396994;28;660620;-64
2022/11/15 08:22:00;;;;;;;30.17;17.83;;;11.50;99.90;;;;;;4396931;28;659601;-65
2022/11/15 08:24:49;;;;;;;21.00;13.50;;;11.90;99.90;;;;;;4374288;28;661264;-64
2022/11/15 08:27:36;;;;;;;25.33;14.47;;;12.20;99.90;;;;;;4375601;28;659938;-66
2022/11/15 08:30:23;;;;;;;25.00;15.53;;;12.50;99.90;;;;;;4399532;28;660167;-64
2022/11/15 08:33:11;;;;;;;33.27;17.77;;;12.70;99.90;;;;;;4377993;28;659625;-65
2022/11/15 08:35:58;;;;;;;25.43;15.03;;;13.00;99.90;;;;;;4396833;28;660676;-64
2022/11/15 08:38:46;;;;;;;25.90;15.83;;;13.10;99.90;;;;;;4378022;28;659785;-64
2022/11/15 08:41:36;;;;;;;29.77;16.23;;;13.30;99.90;;;;;;4396233;28;660387;-64
2022/11/15 08:44:23;;;;;;;25.80;15.60;;;13.30;99.90;;;;;;4372953;28;660631;-64
2022/11/15 08:47:11;;;;;;;26.17;15.50;;;13.70;99.90;;;;;;4376923;28;659817;-65
2022/11/15 08:49:58;;;;;;;24.97;14.83;;;14.00;99.90;;;;;;4395739;28;660109;-64
2022/11/15 08:52:47;;;;;;;28.70;16.13;;;14.00;99.90;;;;;;4376759;28;659801;-64
2022/11/15 08:55:37;;;;;;;26.17;14.47;;;14.20;99.90;;;;;;4394064;28;659844;-66
2022/11/15 08:58:25;;;;;;;25.63;14.40;;;14.60;99.90;;;;;;4396481;28;659961;-64
2022/11/15 09:01:16;;;;;;;33.07;18.10;;;14.60;99.90;;;;;;4622168;28;659878;-64
2022/11/15 09:04:03;;;;;;;38.70;19.47;;;14.90;99.90;;;;;;4601060;28;536514;-64
2022/11/15 09:06:51;;;;;;;21.93;13.00;;;14.90;99.90;;;;;;4378387;28;659386;-65
2022/11/15 09:09:38;;;;;;;19.93;11.30;;;14.90;99.10;;;;;;4397005;28;660388;-64
2022/11/15 09:12:25;;;;;;;15.63;9.80;;;14.30;95.20;;;;;;4383749;28;659903;-65
2022/11/15 09:15:14;;;;;;;17.27;11.17;;;13.80;96.60;;;;;;4402426;28;660239;-64
2022/11/15 09:18:01;;;;;;;24.13;13.80;;;13.30;98.80;;;;;;4377529;28;659924;-64
2022/11/15 09:20:48;;;;;;;31.40;15.40;;;13.10;99.90;;;;;;4400527;28;660446;-64
2022/11/15 09:23:35;;;;;;;30.07;17.00;;;12.70;99.90;;;;;;4382102;28;659901;-65
2022/11/15 09:26:22;;;;;;;32.03;16.37;;;12.50;99.90;;;;;;4401294;28;659529;-64
2022/11/15 09:29:09;;;;;;;30.27;16.50;;;12.90;99.90;;;;;;4397050;28;660121;-64
2022/11/15 09:31:58;;;;;;;27.27;16.00;;;13.40;99.90;;;;;;4374121;28;659335;-63
2022/11/15 09:34:45;;;;;;;29.27;15.93;;;13.40;99.90;;;;;;4388228;28;659941;-65
2022/11/15 09:37:33;;;;;;;25.60;15.50;;;13.40;99.90;;;;;;4400830;28;659598;-64
2022/11/15 09:40:22;;;;;;;28.13;16.87;;;13.10;99.90;;;;;;4391218;28;659715;-65
2022/11/15 09:43:22;;;;;;;30.70;16.77;;;12.30;99.90;;;;;;4409895;28;660515;-64
2022/11/15 09:46:14;;;;;;;26.50;14.67;;;12.70;99.90;;;;;;4389842;28;659375;-63
2022/11/15 09:49:03;;;;;;;29.80;14.30;;;12.80;99.90;;;;;;4360561;28;661271;-64
2022/11/15 09:51:51;;;;;;;26.27;12.50;;;12.90;99.90;;;;;;4403220;28;659583;-65
2022/11/15 09:54:38;;;;;;;27.27;13.17;;;12.40;99.90;;;;;;4414955;28;661179;-63
2022/11/15 09:57:30;;;;;;;26.13;14.33;;;13.00;99.90;;;;;;4389596;28;659800;-64
2022/11/15 10:00:19;;;;;;;30.30;14.53;;;12.80;99.90;;;;;;4389936;28;661513;-63
2022/11/15 10:03:12;;;;;;;23.47;14.20;;;12.30;99.90;;;;;;4392677;28;659426;-64
2022/11/15 10:06:02;;;;;;;28.73;12.60;;;12.70;99.90;;;;;;4389943;28;660023;-64
2022/11/15 10:08:52;;;;;;;22.33;12.63;;;13.80;99.90;;;;;;4389722;28;659705;-64
2022/11/15 10:11:39;;;;;;;22.37;12.30;;;13.60;99.90;;;;;;4389827;28;659468;-63
2022/11/15 10:14:27;;;;;;;23.97;11.57;;;14.10;99.90;;;;;;4389883;28;659593;-64
2022/11/15 10:17:26;;;;;;;21.90;12.73;;;14.00;99.90;;;;;;4408325;28;659576;-65
2022/11/15 10:20:16;;;;;;;22.13;11.90;;;14.00;99.20;;;;;;4389807;28;659926;-64
2022/11/15 10:23:06;;;;;;;24.47;11.80;;;14.50;98.90;;;;;;4389771;28;659917;-64
2022/11/15 10:25:54;;;;;;;20.53;11.33;;;15.60;95.80;;;;;;4382519;28;660285;-64
2022/11/15 10:28:41;;;;;;;18.20;10.20;;;16.40;93.40;;;;;;4393578;28;659932;-65
2022/11/15 10:31:29;;;;;;;22.00;10.33;;;16.10;87.80;;;;;;4416578;28;660437;-64
2022/11/15 10:34:18;;;;;;;20.80;10.80;;;16.00;89.70;;;;;;4393494;28;660110;-64
2022/11/15 10:37:05;;;;;;;16.43;9.90;;;15.50;93.30;;;;;;4393164;28;659736;-65
2022/11/15 10:40:04;;;;;;;18.90;10.57;;;16.00;87.20;;;;;;4410058;28;659598;-64
2022/11/15 10:43:05;;;;;;;19.92;9.70;;;15.80;87.10;;;;;;4385788;28;660216;-64
2022/11/15 10:45:53;;;;;;;18.87;10.07;;;15.80;86.20;;;;;;4366813;28;658692;-63
2022/11/15 10:48:40;;;;;;;21.80;10.93;;;15.80;86.50;;;;;;4402550;28;660060;-65
2022/11/15 10:51:28;;;;;;;20.70;11.10;;;14.80;89.30;;;;;;4415882;28;659753;-64
2022/11/15 10:54:19;;;;;;;18.42;11.00;;;14.60;91.80;;;;;;4392189;28;659618;-64
2022/11/15 10:57:11;;;;;;;21.97;11.30;;;14.60;95.50;;;;;;4393300;28;661020;-63
2022/11/15 11:00:01;;;;;;;20.43;11.73;;;15.90;90.60;;;;;;4382526;28;661435;-64
2022/11/15 11:02:58;;;;;;;17.10;11.47;;;15.00;91.40;;;;;;4387900;28;662907;-64
2022/11/15 11:05:45;;;;;;;20.40;12.00;;;14.80;90.90;;;;;;4382402;28;660973;-65
2022/11/15 11:08:33;;;;;;;22.00;11.83;;;15.30;91.60;;;;;;4414379;28;660738;-64
2022/11/15 11:11:20;;;;;;;16.63;10.73;;;16.40;89.10;;;;;;4391799;28;660449;-64
2022/11/15 11:14:14;;;;;;;24.13;11.60;;;15.10;85.40;;;;;;4410668;28;662829;-64
2022/11/15 11:17:05;;;;;;;23.43;12.57;;;15.80;86.70;;;;;;4390925;28;660593;-64
2022/11/15 11:20:01;;;;;;;17.50;11.40;;;15.90;86.60;;;;;;4387556;28;661500;-65
2022/11/15 11:22:56;;;;;;;20.77;11.93;;;16.70;87.10;;;;;;4387832;28;661634;-64
2022/11/15 11:25:47;;;;;;;22.77;12.53;;;16.30;83.80;;;;;;4387910;28;660837;-65
2022/11/15 11:28:40;;;;;;;21.13;12.40;;;17.30;78.70;;;;;;4387672;28;660727;-64
2022/11/15 11:31:31;;;;;;;18.37;11.33;;;17.80;79.20;;;;;;4364771;28;661790;-64
2022/11/15 11:34:25;;;;;;;14.70;8.67;;;16.90;76.00;;;;;;4387437;28;661189;-63
2022/11/15 11:37:15;;;;;;;16.83;10.03;;;17.10;77.40;;;;;;4365916;28;660325;-63
2022/11/15 11:40:11;;;;;;;17.43;10.03;;;16.50;77.90;;;;;;4387505;28;661696;-63
2022/11/15 11:43:02;;;;;;;16.63;9.50;;;16.40;80.80;;;;;;4383557;28;661894;-63
2022/11/15 11:45:58;;;;;;;16.07;9.83;;;16.90;76.90;;;;;;4388823;28;660164;-64
2022/11/15 11:48:48;;;;;;;17.97;9.87;;;16.70;77.80;;;;;;4365915;28;660630;-64
2022/11/15 11:51:37;;;;;;;16.97;11.73;;;18.10;74.40;;;;;;4392346;28;660122;-65
2022/11/15 11:54:27;;;;;;;22.00;12.40;;;16.40;77.10;;;;;;4410407;28;661043;-64
2022/11/15 11:57:18;;;;;;;20.63;12.17;;;14.20;85.70;;;;;;4390279;28;661736;-64
2022/11/15 12:00:13;;;;;;;20.17;12.43;;;13.90;90.80;;;;;;4393179;28;662143;-64
2022/11/15 12:03:05;;;;;;;20.63;12.80;;;13.70;91.40;;;;;;4375205;28;660922;-65
2022/11/15 12:05:55;;;;;;;21.00;12.03;;;13.20;95.80;;;;;;4389018;28;662747;-63
2022/11/15 12:08:46;;;;;;;27.63;12.50;;;14.20;94.40;;;;;;4389787;28;661904;-63
2022/11/15 12:11:37;;;;;;;21.17;11.10;;;15.30;92.90;;;;;;4390585;28;662230;-63
2022/11/15 12:14:33;;;;;;;24.53;13.83;;;14.30;90.40;;;;;;4387410;28;660494;-64
2022/11/15 12:17:22;;;;;;;23.43;13.30;;;13.10;93.40;;;;;;4371346;28;661983;-64
2022/11/15 12:20:16;;;;;;;20.37;12.17;;;12.90;95.70;;;;;;4413315;28;660709;-64
2022/11/15 12:23:07;;;;;;;27.03;13.80;;;13.00;96.60;;;;;;4390232;28;661992;-63
2022/11/15 12:25:56;;;;;;;22.37;12.83;;;12.70;98.10;;;;;;4390192;28;661017;-64
2022/11/15 12:28:46;;;;;;;29.47;14.50;;;12.80;98.70;;;;;;4390119;28;662192;-64
2022/11/15 12:31:37;;;;;;;22.93;13.30;;;12.80;98.10;;;;;;4390085;28;661742;-64
2022/11/15 12:34:40;;;;;;;24.90;13.67;;;12.60;99.40;;;;;;4390080;28;660994;-63
2022/11/15 12:37:49;;;;;;;25.83;13.87;;;12.60;99.60;;;;;;4364073;28;662101;-64
2022/11/15 12:40:38;;;;;;;22.37;13.13;;;12.30;99.90;;;;;;4371624;28;661208;-64
2022/11/15 12:43:43;;;;;;;21.57;12.60;;;11.90;99.90;;;;;;4393782;28;660710;-65
2022/11/15 12:47:02;;;;;;;25.27;13.67;;;12.20;99.90;;;;;;4371277;28;661069;-65
2022/11/15 12:49:49;;;;;;;21.53;12.77;;;12.30;99.90;;;;;;4381755;28;660622;-64
2022/11/15 12:52:36;;;;;;;23.80;13.23;;;12.10;99.90;;;;;;4388600;28;661680;-63
2022/11/15 12:55:31;;;;;;;26.03;13.57;;;12.20;99.90;;;;;;4411631;28;661575;-64
2022/11/15 12:58:28;;;;;;;27.80;12.60;;;12.10;99.90;;;;;;4385328;28;662058;-64
2022/11/15 13:01:50;;;;;;;21.33;11.90;;;12.20;99.90;;;;;;4636296;28;661085;-64
2022/11/15 13:04:37;;;;;;;23.43;12.57;;;12.20;99.90;;;;;;4485441;28;558424;-64
2022/11/15 13:08:00;;;;;;;26.87;12.47;;;12.20;99.90;;;;;;4412720;28;661614;-63
2022/11/15 13:10:47;;;;;;;23.73;12.20;;;12.20;99.90;;;;;;4388833;28;661105;-64
2022/11/15 13:13:45;;;;;;;23.97;13.07;;;12.30;99.90;;;;;;4411804;28;661242;-63
2022/11/15 13:16:32;;;;;;;25.00;13.03;;;12.30;99.90;;;;;;4392438;28;661438;-64
2022/11/15 13:19:19;;;;;;;27.07;12.90;;;12.20;99.90;;;;;;4411329;28;661355;-63
2022/11/15 13:25:19;;;;;;;25.70;13.53;;;12.00;99.90;;;;;;4389853;28;660605;-64
2022/11/15 13:28:11;;;;;;;27.27;13.67;;;11.80;99.90;;;;;;4393152;28;661060;-63
2022/11/15 13:31:01;;;;;;;23.33;13.50;;;11.50;99.90;;;;;;4388353;28;661327;-64
2022/11/15 13:33:48;;;;;;;26.53;14.10;;;11.40;99.90;;;;;;4388965;28;661650;-64
2022/11/15 13:36:35;;;;;;;27.77;14.80;;;11.50;99.90;;;;;;4393054;28;661696;-64
2022/11/15 13:39:28;;;;;;;31.03;14.70;;;11.60;99.90;;;;;;4416074;28;662045;-64
2022/11/15 13:42:15;;;;;;;29.53;14.20;;;11.60;99.90;;;;;;4371738;28;660733;-66
2022/11/15 13:45:05;;;;;;;27.67;14.87;;;11.60;99.90;;;;;;4411773;28;661632;-63
2022/11/15 13:47:55;;;;;;;27.10;14.20;;;11.60;99.90;;;;;;4388808;28;662651;-64
2022/11/15 13:50:42;;;;;;;29.20;14.17;;;11.60;99.90;;;;;;4388944;28;661719;-64
2022/11/15 13:53:29;;;;;;;25.40;13.43;;;11.70;99.90;;;;;;4410554;28;661936;-63
2022/11/15 13:56:16;;;;;;;26.50;14.30;;;11.60;99.90;;;;;;4391547;28;661780;-64
2022/11/15 13:59:09;;;;;;;22.97;13.57;;;11.40;99.90;;;;;;4407166;28;662170;-64
2022/11/15 14:01:58;;;;;;;24.77;14.10;;;11.30;99.90;;;;;;4368725;28;661750;-63
2022/11/15 14:04:49;;;;;;;26.50;14.03;;;11.10;99.90;;;;;;4391798;28;662272;-65
2022/11/15 14:07:36;;;;;;;24.20;14.13;;;11.10;99.90;;;;;;4391697;28;660782;-64
2022/11/15 14:10:28;;;;;;;28.97;15.23;;;11.10;99.90;;;;;;4410082;28;661747;-64
2022/11/15 14:13:28;;;;;;;28.33;15.63;;;11.00;99.90;;;;;;4391348;28;660244;-64
2022/11/15 14:16:16;;;;;;;28.67;14.37;;;10.90;99.90;;;;;;4376024;28;660887;-64
2022/11/15 14:19:04;;;;;;;28.47;15.20;;;10.80;99.90;;;;;;4410481;28;662143;-64
2022/11/15 14:22:12;;;;;;;26.63;14.00;;;10.80;99.90;;;;;;4391266;28;660793;-64
2022/11/15 14:25:23;;;;;;;23.90;12.63;;;10.80;99.90;;;;;;4387295;28;661825;-64
2022/11/15 14:28:29;;;;;;;24.80;12.38;;;10.60;99.90;;;;;;4357016;28;661119;-64